createdAt,value
2018-09-12T00:02:08.840Z,56.10
2018-09-12T00:04:36.918Z,56.20
2018-09-12T00:07:04.992Z,56.20
2018-09-12T00:09:33.039Z,56.30
2018-09-12T00:12:01.120Z,56.00
2018-09-12T00:14:29.225Z,55.90
2018-09-12T00:16:58.169Z,55.80
2018-09-12T00:19:26.541Z,55.80
2018-09-12T00:21:54.657Z,55.80
2018-09-12T00:24:22.732Z,56.30
2018-09-12T00:26:50.868Z,56.10
2018-09-12T00:29:18.997Z,56.00
2018-09-12T00:31:47.044Z,56.00
2018-09-12T00:34:15.105Z,56.10
2018-09-12T00:36:43.167Z,55.90
2018-09-12T00:39:12.281Z,55.60
2018-09-12T00:41:40.428Z,55.60
2018-09-12T00:44:08.985Z,55.40
2018-09-12T00:46:37.056Z,55.40
2018-09-12T00:49:05.460Z,55.30
2018-09-12T00:51:33.530Z,55.40
2018-09-12T00:54:01.613Z,55.50
2018-09-12T00:56:29.776Z,55.60
2018-09-12T00:58:57.881Z,55.60
2018-09-12T01:01:25.966Z,55.80
2018-09-12T01:03:54.052Z,56.60
2018-09-12T01:06:22.123Z,56.00
2018-09-12T01:08:50.531Z,56.00
2018-09-12T01:11:18.610Z,55.90
2018-09-12T01:13:46.691Z,56.00
2018-09-12T01:16:14.774Z,56.00
2018-09-12T01:18:42.984Z,56.00
2018-09-12T01:21:11.080Z,56.00
2018-09-12T01:23:39.225Z,55.90
2018-09-12T01:26:07.308Z,55.70
2018-09-12T01:28:35.371Z,55.90
2018-09-12T01:31:03.486Z,55.80
2018-09-12T01:33:31.565Z,55.90
2018-09-12T01:35:59.651Z,56.00
2018-09-12T01:38:27.702Z,56.00
2018-09-12T01:40:55.934Z,56.00
2018-09-12T01:43:24.056Z,56.00
2018-09-12T01:45:52.365Z,56.00
2018-09-12T01:48:20.524Z,56.00
2018-09-12T01:50:48.714Z,56.10
2018-09-12T01:53:16.805Z,56.10
2018-09-12T01:55:44.897Z,56.00
2018-09-12T01:58:12.977Z,55.90
2018-09-12T02:00:42.158Z,55.80
2018-09-12T02:03:10.715Z,55.90
2018-09-12T02:05:45.495Z,56.60
2018-09-12T02:08:13.571Z,56.10
2018-09-12T02:10:41.625Z,56.20
2018-09-12T02:13:09.773Z,56.20
2018-09-12T02:15:37.924Z,56.20
2018-09-12T02:18:06.033Z,56.20
2018-09-12T02:20:34.071Z,56.30
2018-09-12T02:23:02.194Z,56.00
2018-09-12T02:25:30.312Z,56.10
2018-09-12T02:27:58.435Z,56.30
2018-09-12T02:30:26.533Z,56.30
2018-09-12T02:32:54.661Z,56.30
2018-09-12T02:35:22.788Z,56.30
2018-09-12T02:37:50.901Z,56.30
2018-09-12T02:40:19.037Z,56.40
2018-09-12T02:42:47.147Z,56.40
2018-09-12T02:45:15.210Z,56.20
2018-09-12T02:47:43.319Z,56.50
2018-09-12T02:50:12.403Z,56.60
2018-09-12T02:52:40.679Z,56.60
2018-09-12T02:55:10.243Z,56.50
2018-09-12T02:57:38.347Z,56.50
2018-09-12T03:00:06.851Z,56.60
2018-09-12T03:02:34.942Z,56.60
2018-09-12T03:05:03.057Z,56.70
2018-09-12T03:07:31.187Z,56.90
2018-09-12T03:09:59.406Z,57.00
2018-09-12T03:12:27.503Z,57.00
2018-09-12T03:14:55.552Z,57.10
2018-09-12T03:17:23.626Z,57.30
2018-09-12T03:19:51.749Z,57.30
2018-09-12T03:22:19.918Z,57.40
2018-09-12T03:24:48.012Z,57.40
2018-09-12T03:27:16.083Z,57.30
2018-09-12T03:29:44.157Z,57.20
2018-09-12T03:32:12.218Z,57.90
2018-09-12T03:34:40.298Z,57.90
2018-09-12T03:37:08.399Z,57.40
2018-09-12T03:39:36.465Z,57.80
2018-09-12T03:42:04.584Z,57.40
2018-09-12T03:44:32.714Z,57.70
2018-09-12T03:47:00.820Z,57.90
2018-09-12T03:49:28.924Z,58.00
2018-09-12T03:51:57.009Z,58.00
2018-09-12T03:54:25.112Z,58.10
2018-09-12T03:56:53.180Z,58.10
2018-09-12T03:59:21.278Z,57.90
2018-09-12T04:01:49.357Z,57.80
2018-09-12T04:04:17.425Z,57.70
2018-09-12T04:06:45.481Z,57.70
2018-09-12T04:09:13.536Z,57.60
2018-09-12T04:11:41.743Z,57.60
2018-09-12T04:14:09.848Z,57.70
2018-09-12T04:16:38.062Z,57.90
2018-09-12T04:19:06.175Z,57.80
2018-09-12T04:21:34.258Z,57.90
2018-09-12T04:24:02.408Z,57.90
2018-09-12T04:26:30.496Z,58.00
2018-09-12T04:28:58.633Z,58.10
2018-09-12T04:31:26.747Z,57.90
2018-09-12T04:33:54.868Z,57.90
2018-09-12T04:36:22.919Z,58.00
2018-09-12T04:38:50.995Z,58.10
2018-09-12T04:41:19.085Z,58.30
2018-09-12T04:43:47.130Z,58.30
2018-09-12T04:46:15.201Z,58.40
2018-09-12T04:48:43.266Z,58.50
2018-09-12T04:51:11.338Z,59.10
2018-09-12T04:53:39.398Z,58.50
2018-09-12T04:56:07.472Z,58.50
2018-09-12T04:58:35.711Z,58.30
2018-09-12T05:01:03.761Z,58.30
2018-09-12T05:03:31.802Z,58.30
2018-09-12T05:05:59.869Z,58.40
2018-09-12T05:08:27.950Z,58.40
2018-09-12T05:10:56.052Z,58.40
2018-09-12T05:13:24.124Z,58.30
2018-09-12T05:15:52.308Z,58.40
2018-09-12T05:18:20.341Z,58.40
2018-09-12T05:20:48.411Z,58.30
2018-09-12T05:23:16.521Z,58.50
2018-09-12T05:25:44.584Z,58.50
2018-09-12T05:28:12.677Z,58.40
2018-09-12T05:30:40.880Z,58.30
2018-09-12T05:33:08.992Z,58.30
2018-09-12T05:35:37.029Z,58.30
2018-09-12T05:38:05.073Z,58.10
2018-09-12T05:40:33.223Z,57.80
2018-09-12T05:43:01.288Z,57.70
2018-09-12T05:45:29.371Z,57.50
2018-09-12T05:47:57.486Z,57.50
2018-09-12T05:50:25.651Z,57.10
2018-09-12T05:52:53.899Z,57.00
2018-09-12T05:55:22.027Z,57.10
2018-09-12T05:57:50.103Z,56.90
2018-09-12T06:00:20.701Z,56.80
2018-09-12T06:02:48.845Z,56.60
2018-09-12T06:05:17.370Z,56.40
2018-09-12T06:07:45.440Z,56.30
2018-09-12T06:10:13.556Z,56.30
2018-09-12T06:12:41.746Z,56.30
2018-09-12T06:15:09.816Z,56.30
2018-09-12T06:17:37.904Z,56.30
2018-09-12T06:20:06.291Z,56.30
2018-09-12T06:22:34.364Z,56.20
2018-09-12T06:25:02.439Z,56.10
2018-09-12T06:27:30.715Z,56.10
2018-09-12T06:29:58.804Z,55.90
2018-09-12T06:32:26.896Z,55.90
2018-09-12T06:34:55.010Z,55.60
2018-09-12T06:37:23.103Z,55.50
2018-09-12T06:39:51.182Z,55.40
2018-09-12T06:42:19.297Z,55.40
2018-09-12T06:44:47.413Z,55.10
2018-09-12T06:47:15.483Z,54.80
2018-09-12T06:49:46.739Z,54.60
2018-09-12T06:52:15.676Z,54.30
2018-09-12T06:54:43.796Z,54.00
2018-09-12T06:57:11.826Z,54.10
2018-09-12T06:59:39.892Z,53.20
2018-09-12T07:02:08.020Z,52.80
2018-09-12T07:04:36.173Z,53.20
2018-09-12T07:07:04.258Z,52.00
2018-09-12T07:09:32.328Z,51.00
2018-09-12T07:12:00.374Z,49.60
2018-09-12T07:14:28.465Z,48.20
2018-09-12T07:16:56.592Z,47.40
2018-09-12T07:19:24.680Z,46.20
2018-09-12T07:21:52.846Z,46.60
2018-09-12T07:24:20.953Z,47.80
2018-09-12T07:26:48.986Z,48.90
2018-09-12T07:29:17.034Z,49.60
2018-09-12T07:31:45.118Z,50.20
2018-09-12T07:34:13.183Z,50.50
2018-09-12T07:36:41.276Z,50.60
2018-09-12T07:39:11.072Z,50.60
2018-09-12T07:41:40.257Z,50.60
2018-09-12T07:44:08.462Z,50.50
2018-09-12T07:46:36.967Z,50.40
2018-09-12T07:49:05.880Z,50.20
2018-09-12T07:51:34.043Z,50.40
2018-09-12T07:54:02.121Z,50.20
2018-09-12T07:56:30.276Z,50.80
2018-09-12T07:58:58.315Z,50.90
2018-09-12T08:01:26.513Z,50.40
2018-09-12T08:03:54.575Z,50.60
2018-09-12T08:06:22.684Z,50.50
2018-09-12T08:08:50.799Z,50.60
2018-09-12T08:11:18.932Z,50.60
2018-09-12T08:13:46.999Z,50.50
2018-09-12T08:16:15.069Z,50.20
2018-09-12T08:18:43.143Z,50.20
2018-09-12T08:21:11.810Z,50.30
2018-09-12T08:23:40.232Z,50.20
2018-09-12T08:26:08.588Z,49.90
2018-09-12T08:28:36.623Z,49.70
2018-09-12T08:31:04.698Z,49.70
2018-09-12T08:33:32.785Z,49.40
2018-09-12T08:36:00.918Z,50.60
2018-09-12T08:38:29.089Z,49.90
2018-09-12T08:40:57.160Z,50.00
2018-09-12T08:43:25.260Z,50.10
2018-09-12T08:45:53.331Z,50.20
2018-09-12T08:48:21.379Z,50.20
2018-09-12T08:50:50.298Z,50.10
2018-09-12T08:53:18.905Z,50.10
2018-09-12T08:55:47.873Z,49.90
2018-09-12T08:58:16.011Z,49.60
2018-09-12T09:00:44.493Z,49.50
2018-09-12T09:03:12.640Z,49.40
2018-09-12T09:05:40.721Z,49.90
2018-09-12T09:08:08.792Z,48.60
2018-09-12T09:10:36.944Z,48.20
2018-09-12T09:13:04.989Z,48.10
2018-09-12T09:15:33.094Z,48.00
2018-09-12T09:18:01.214Z,47.80
2018-09-12T09:20:29.296Z,47.30
2018-09-12T09:22:57.396Z,47.10
2018-09-12T09:25:25.477Z,47.00
2018-09-12T09:27:53.574Z,47.40
2018-09-12T09:30:22.008Z,47.50
2018-09-12T09:32:50.066Z,47.80
2018-09-12T09:35:18.259Z,47.90
2018-09-12T09:37:46.358Z,47.80
2018-09-12T09:40:14.410Z,47.90
2018-09-12T09:42:42.552Z,48.10
2018-09-12T09:45:10.908Z,48.30
2018-09-12T09:47:39.008Z,48.30
2018-09-12T09:50:07.085Z,48.10
2018-09-12T09:52:35.175Z,48.00
2018-09-12T09:55:03.323Z,48.20
2018-09-12T09:57:31.370Z,48.00
2018-09-12T09:59:59.510Z,48.10
2018-09-12T10:02:33.057Z,48.70
2018-09-12T10:05:02.916Z,49.20
2018-09-12T10:07:36.383Z,49.70
2018-09-12T10:10:05.488Z,50.40
2018-09-12T10:12:34.268Z,50.70
2018-09-12T10:15:03.319Z,50.10
2018-09-12T10:17:31.727Z,50.60
2018-09-12T10:20:00.086Z,50.40
2018-09-12T10:22:28.198Z,50.20
2018-09-12T10:24:56.384Z,49.50
2018-09-12T10:27:24.575Z,48.80
2018-09-12T10:29:52.644Z,48.20
2018-09-12T10:32:20.715Z,48.90
2018-09-12T10:34:48.886Z,49.00
2018-09-12T10:37:17.834Z,48.90
2018-09-12T10:39:45.987Z,48.30
2018-09-12T10:42:14.099Z,47.60
2018-09-12T10:44:42.644Z,47.60
2018-09-12T10:47:10.721Z,47.70
2018-09-12T10:49:38.804Z,48.00
2018-09-12T10:52:06.889Z,48.20
2018-09-12T10:54:35.148Z,48.00
2018-09-12T10:57:03.223Z,48.20
2018-09-12T10:59:31.293Z,47.80
2018-09-12T11:01:59.352Z,47.60
2018-09-12T11:04:27.554Z,47.80
2018-09-12T11:06:55.576Z,47.80
2018-09-12T11:09:23.623Z,47.80
2018-09-12T11:11:51.658Z,47.70
2018-09-12T11:14:19.745Z,47.90
2018-09-12T11:16:47.854Z,47.80
2018-09-12T11:19:15.949Z,47.80
2018-09-12T11:21:44.136Z,47.60
2018-09-12T11:24:12.248Z,47.80
2018-09-12T11:26:40.348Z,47.30
2018-09-12T11:29:08.414Z,47.40
2018-09-12T11:31:36.584Z,47.30
2018-09-12T11:34:04.810Z,47.50
2018-09-12T11:36:32.918Z,47.60
2018-09-12T11:39:00.961Z,47.80
2018-09-12T11:41:29.046Z,47.90
2018-09-12T11:43:57.148Z,47.50
2018-09-12T11:46:25.301Z,46.90
2018-09-12T11:48:53.397Z,46.20
2018-09-12T11:51:21.447Z,45.90
2018-09-12T11:53:49.502Z,45.90
2018-09-12T11:56:17.597Z,45.70
2018-09-12T11:58:45.673Z,45.30
2018-09-12T12:01:13.714Z,45.10
2018-09-12T12:03:41.819Z,45.40
2018-09-12T12:06:09.938Z,44.90
2018-09-12T12:08:37.977Z,44.30
2018-09-12T12:11:06.146Z,44.10
2018-09-12T12:13:34.260Z,44.10
2018-09-12T12:16:02.319Z,43.30
2018-09-12T12:18:30.424Z,43.40
2018-09-12T12:20:58.490Z,43.10
2018-09-12T12:23:26.588Z,42.30
2018-09-12T12:25:54.677Z,41.40
2018-09-12T12:28:22.757Z,41.50
2018-09-12T12:30:50.873Z,41.70
2018-09-12T12:33:18.979Z,42.30
2018-09-12T12:35:47.043Z,43.00
2018-09-12T12:38:15.271Z,43.40
2018-09-12T12:40:43.374Z,43.80
2018-09-12T12:43:11.508Z,44.00
2018-09-12T12:45:39.575Z,44.30
2018-09-12T12:48:07.661Z,44.40
2018-09-12T12:50:35.767Z,43.60
2018-09-12T12:53:03.830Z,43.90
2018-09-12T12:55:31.907Z,43.40
2018-09-12T12:57:59.996Z,43.10
2018-09-12T13:00:28.085Z,43.30
2018-09-12T13:02:56.178Z,43.60
2018-09-12T13:05:24.209Z,43.90
2018-09-12T13:07:52.329Z,44.50
2018-09-12T13:10:20.408Z,45.80
2018-09-12T13:12:48.461Z,46.10
2018-09-12T13:15:16.516Z,46.50
2018-09-12T13:17:44.761Z,47.10
2018-09-12T13:20:12.879Z,47.10
2018-09-12T13:22:40.946Z,47.30
2018-09-12T13:25:09.003Z,47.10
2018-09-12T13:27:37.134Z,47.00
2018-09-12T13:30:05.573Z,47.20
2018-09-12T13:32:33.712Z,47.90
2018-09-12T13:35:01.897Z,48.30
2018-09-12T13:37:29.992Z,48.40
2018-09-12T13:39:58.067Z,48.50
2018-09-12T13:42:26.223Z,48.60
2018-09-12T13:44:54.304Z,48.70
2018-09-12T13:47:22.356Z,48.80
2018-09-12T13:49:50.406Z,48.70
2018-09-12T13:52:18.496Z,48.80
2018-09-12T13:54:46.590Z,48.80
2018-09-12T13:57:14.706Z,48.60
2018-09-12T13:59:42.801Z,48.00
2018-09-12T14:02:11.306Z,48.30
2018-09-12T14:04:39.408Z,47.70
2018-09-12T14:07:07.497Z,47.30
2018-09-12T14:09:35.554Z,47.30
2018-09-12T14:12:04.295Z,47.40
2018-09-12T14:14:32.414Z,47.20
2018-09-12T14:17:00.497Z,47.10
2018-09-12T14:19:28.605Z,47.00
2018-09-12T14:21:56.681Z,47.60
2018-09-12T14:24:24.742Z,47.80
2018-09-12T14:26:52.845Z,48.10
2018-09-12T14:29:20.953Z,48.60
2018-09-12T14:31:49.089Z,48.70
2018-09-12T14:34:17.155Z,48.60
2018-09-12T14:36:45.282Z,48.70
2018-09-12T14:39:13.485Z,49.30
2018-09-12T14:41:41.479Z,49.50
2018-09-12T14:44:09.557Z,49.70
2018-09-12T14:46:37.666Z,49.90
2018-09-12T14:49:05.734Z,49.80
2018-09-12T14:51:33.814Z,49.70
2018-09-12T14:54:01.928Z,50.20
2018-09-12T14:56:30.058Z,50.50
2018-09-12T14:58:58.178Z,50.50
2018-09-12T15:01:26.290Z,50.50
2018-09-12T15:03:54.366Z,50.50
2018-09-12T15:06:22.468Z,50.30
2018-09-12T15:08:50.552Z,50.50
2018-09-12T15:11:18.623Z,50.70
2018-09-12T15:13:46.700Z,50.60
2018-09-12T15:16:14.855Z,50.90
2018-09-12T15:18:43.051Z,51.50
2018-09-12T15:21:11.171Z,52.00
2018-09-12T15:23:39.333Z,52.00
2018-09-12T15:26:07.407Z,52.70
2018-09-12T15:28:35.497Z,53.10
2018-09-12T15:31:03.615Z,53.50
2018-09-12T15:33:31.685Z,53.90
2018-09-12T15:35:59.819Z,54.90
2018-09-12T15:38:27.917Z,55.90
2018-09-12T15:40:55.996Z,57.00
2018-09-12T15:43:24.290Z,58.10
2018-09-12T15:45:52.370Z,59.00
2018-09-12T15:48:20.488Z,59.40
2018-09-12T15:50:48.585Z,59.70
2018-09-12T15:53:16.691Z,59.90
2018-09-12T15:55:44.868Z,60.20
2018-09-12T15:58:13.106Z,60.70
2018-09-12T16:00:41.197Z,61.00
2018-09-12T16:03:09.255Z,61.50
2018-09-12T16:05:37.351Z,61.80
2018-09-12T16:08:05.465Z,62.20
2018-09-12T16:10:33.920Z,62.80
2018-09-12T16:13:02.112Z,63.10
2018-09-12T16:15:30.327Z,63.40
2018-09-12T16:17:58.439Z,63.50
2018-09-12T16:20:26.663Z,64.00
2018-09-12T16:22:54.853Z,64.40
2018-09-12T16:25:22.954Z,64.80
2018-09-12T16:27:51.050Z,65.00
2018-09-12T16:30:19.257Z,65.20
2018-09-12T16:32:47.485Z,65.60
2018-09-12T16:35:15.447Z,66.00
2018-09-12T16:37:43.536Z,66.40
2018-09-12T16:40:11.729Z,66.70
2018-09-12T16:45:14.468Z,67.50
2018-09-12T16:47:42.570Z,67.70
2018-09-12T16:50:10.720Z,67.90
2018-09-12T16:52:38.823Z,67.90
2018-09-12T16:55:07.020Z,68.20
2018-09-12T16:57:35.134Z,68.60
2018-09-12T17:00:03.213Z,68.60
2018-09-12T17:02:31.336Z,68.90
2018-09-12T17:04:59.382Z,69.10
2018-09-12T17:07:27.473Z,69.40
2018-09-12T17:09:55.553Z,69.80
2018-09-12T17:12:23.621Z,70.40
2018-09-12T17:14:51.783Z,70.70
2018-09-12T17:17:19.867Z,71.10
2018-09-12T17:19:47.974Z,71.30
2018-09-12T17:22:16.154Z,71.40
2018-09-12T17:24:44.291Z,71.30
2018-09-12T17:27:12.507Z,71.40
2018-09-12T17:29:40.564Z,71.30
2018-09-12T17:32:08.773Z,71.60
2018-09-12T17:34:36.820Z,71.70
2018-09-12T17:37:04.949Z,72.00
2018-09-12T17:39:32.984Z,72.30
2018-09-12T17:42:01.075Z,72.40
2018-09-12T17:44:29.170Z,72.50
2018-09-12T17:46:57.303Z,72.40
2018-09-12T17:49:25.420Z,72.60
2018-09-12T17:51:53.506Z,72.80
2018-09-12T17:54:21.589Z,73.00
2018-09-12T17:56:49.709Z,73.20
2018-09-12T17:59:17.752Z,73.40
2018-09-12T18:01:45.892Z,73.60
2018-09-12T18:04:13.957Z,73.60
2018-09-12T18:06:43.026Z,74.10
2018-09-12T18:09:11.276Z,74.60
2018-09-12T18:11:39.335Z,74.80
2018-09-12T18:14:07.481Z,75.10
2018-09-12T18:16:35.609Z,75.30
2018-09-12T18:19:03.714Z,75.40
2018-09-12T18:21:31.901Z,75.60
2018-09-12T18:24:00.035Z,75.70
2018-09-12T18:26:28.187Z,76.00
2018-09-12T18:28:56.366Z,76.10
2018-09-12T18:31:24.490Z,76.30
2018-09-12T18:33:52.610Z,76.80
2018-09-12T18:36:20.872Z,77.10
2018-09-12T18:38:48.937Z,77.40
2018-09-12T18:41:16.994Z,77.60
2018-09-12T18:43:45.157Z,77.40
2018-09-12T18:46:13.311Z,76.90
2018-09-12T18:48:41.381Z,76.50
2018-09-12T18:51:10.486Z,76.70
2018-09-12T18:53:39.639Z,77.10
2018-09-12T18:56:07.766Z,77.20
2018-09-12T18:58:36.123Z,77.50
2018-09-12T19:01:05.956Z,77.80
2018-09-12T19:03:34.432Z,77.90
2018-09-12T19:06:02.564Z,77.60
2018-09-12T19:08:30.643Z,77.50
2018-09-12T19:10:58.735Z,77.40
2018-09-12T19:13:26.866Z,77.40
2018-09-12T19:15:54.933Z,77.70
2018-09-12T19:18:23.060Z,77.90
2018-09-12T19:20:51.182Z,78.00
2018-09-12T19:23:19.544Z,78.10
2018-09-12T19:25:47.630Z,78.10
2018-09-12T19:28:15.728Z,78.20
2018-09-12T19:30:43.845Z,78.50
2018-09-12T19:33:11.924Z,78.60
2018-09-12T19:35:39.980Z,78.80
2018-09-12T19:38:08.243Z,78.90
2018-09-12T19:40:36.311Z,78.80
2018-09-12T19:43:04.420Z,78.70
2018-09-12T19:45:32.502Z,78.60
2018-09-12T19:48:00.591Z,78.70
2018-09-12T19:50:28.681Z,78.90
2018-09-12T19:52:56.813Z,79.00
2018-09-12T19:55:25.792Z,78.80
2018-09-12T19:57:53.923Z,79.00
2018-09-12T20:00:22.056Z,78.80
2018-09-12T20:02:50.107Z,78.90
2018-09-12T20:05:18.198Z,79.10
2018-09-12T20:07:46.318Z,79.10
2018-09-12T20:10:14.509Z,80.00
2018-09-12T20:12:42.620Z,79.50
2018-09-12T20:15:10.762Z,79.60
2018-09-12T20:17:38.984Z,79.90
2018-09-12T20:20:07.093Z,80.10
2018-09-12T20:22:35.212Z,80.20
2018-09-12T20:25:03.316Z,80.30
2018-09-12T20:27:31.416Z,80.50
2018-09-12T20:29:59.552Z,80.70
2018-09-12T20:32:27.681Z,80.90
2018-09-12T20:34:55.823Z,81.00
2018-09-12T20:37:23.887Z,81.10
2018-09-12T20:39:51.984Z,81.20
2018-09-12T20:42:20.113Z,81.30
2018-09-12T20:44:48.244Z,81.50
2018-09-12T20:47:17.130Z,81.70
2018-09-12T20:49:45.257Z,81.90
2018-09-12T20:52:13.338Z,82.10
2018-09-12T20:54:41.485Z,82.00
2018-09-12T20:57:09.569Z,82.20
2018-09-12T20:59:37.717Z,82.10
2018-09-12T21:02:06.027Z,82.20
2018-09-12T21:04:34.149Z,82.40
2018-09-12T21:07:02.510Z,82.60
2018-09-12T21:09:30.683Z,83.20
2018-09-12T21:11:58.776Z,83.00
2018-09-12T21:14:26.964Z,83.30
2018-09-12T21:16:55.090Z,83.50
2018-09-12T21:19:23.207Z,83.60
2018-09-12T21:21:51.295Z,83.80
2018-09-12T21:24:19.558Z,83.90
2018-09-12T21:26:47.657Z,84.10
2018-09-12T21:29:15.747Z,84.30
2018-09-12T21:31:43.877Z,84.60
2018-09-12T21:34:12.029Z,84.70
2018-09-12T21:36:40.110Z,84.80
2018-09-12T21:39:08.807Z,84.90
2018-09-12T21:41:37.004Z,85.10
2018-09-12T21:44:05.190Z,85.30
2018-09-12T21:46:33.324Z,85.40
2018-09-12T21:49:01.402Z,85.40
2018-09-12T21:51:29.714Z,85.30
2018-09-12T21:53:57.826Z,85.30
2018-09-12T21:56:25.874Z,85.30
2018-09-12T21:58:54.255Z,85.30
2018-09-12T22:01:23.323Z,85.40
2018-09-12T22:03:52.198Z,85.30
2018-09-12T22:06:20.569Z,85.30
2018-09-12T22:08:48.690Z,85.30
2018-09-12T22:11:16.839Z,85.30
2018-09-12T22:13:44.902Z,85.10
2018-09-12T22:16:12.994Z,85.00
2018-09-12T22:18:41.084Z,84.50
2018-09-12T22:21:09.228Z,83.90
2018-09-12T22:23:37.307Z,83.10
2018-09-12T22:26:05.458Z,83.20
2018-09-12T22:28:33.706Z,83.20
2018-09-12T22:31:01.915Z,83.20
2018-09-12T22:33:30.033Z,83.30
2018-09-12T22:35:58.248Z,82.90
2018-09-12T22:38:26.324Z,79.10
2018-09-12T22:40:54.383Z,79.60
2018-09-12T22:43:22.432Z,80.30
2018-09-12T22:45:50.697Z,79.70
2018-09-12T22:48:18.800Z,80.00
2018-09-12T22:50:47.191Z,78.10
2018-09-12T22:53:15.271Z,75.90
2018-09-12T22:55:43.342Z,74.50
2018-09-12T22:58:11.515Z,74.00
2018-09-12T23:00:39.628Z,74.00
2018-09-12T23:03:07.765Z,73.60
2018-09-12T23:05:35.868Z,73.80
2018-09-12T23:08:03.948Z,73.70
2018-09-12T23:10:32.058Z,73.70
2018-09-12T23:13:00.233Z,73.90
2018-09-12T23:15:28.309Z,74.90
2018-09-12T23:17:56.347Z,74.90
2018-09-12T23:20:24.429Z,74.70
2018-09-12T23:22:52.508Z,74.80
2018-09-12T23:25:20.578Z,75.20
2018-09-12T23:27:48.855Z,75.50
2018-09-12T23:30:16.947Z,76.00
2018-09-12T23:32:45.027Z,76.70
2018-09-12T23:35:13.104Z,77.10
2018-09-12T23:37:41.183Z,77.70
2018-09-12T23:40:09.250Z,78.10
2018-09-12T23:42:37.337Z,78.70
2018-09-12T23:45:05.430Z,79.00
2018-09-12T23:47:33.599Z,78.80
2018-09-12T23:50:01.666Z,78.70
2018-09-12T23:52:29.726Z,78.20
2018-09-12T23:54:57.794Z,78.10
2018-09-12T23:57:25.908Z,78.50
2018-09-12T23:59:54.029Z,78.90
